sensor_id;sensor_type;location;lat;lon;timestamp;P1;durP1;ratioP1;P2;durP2;ratioP2
9080;SDS011;13509;50.760;6.080;2024-03-08T00:00:20;26.07;;;14.73;;
9080;SDS011;13509;50.760;6.080;2024-03-08T00:02:49;26.97;;;15.07;;
9080;SDS011;13509;50.760;6.080;2024-03-08T00:05:18;25.10;;;13.63;;
9080;SDS011;13509;50.760;6.080;2024-03-08T00:07:46;25.67;;;14.83;;
9080;SDS011;13509;50.760;6.080;2024-03-08T00:10:15;21.00;;;13.53;;
9080;SDS011;13509;50.760;6.080;2024-03-08T00:12:44;24.93;;;13.67;;
9080;SDS011;13509;50.760;6.080;2024-03-08T00:15:14;23.83;;;14.53;;
9080;SDS011;13509;50.760;6.080;2024-03-08T00:17:46;23.57;;;14.63;;
9080;SDS011;13509;50.760;6.080;2024-03-08T00:20:15;23.17;;;14.37;;
9080;SDS011;13509;50.760;6.080;2024-03-08T00:22:45;25.40;;;14.93;;
9080;SDS011;13509;50.760;6.080;2024-03-08T00:25:14;28.17;;;15.53;;
9080;SDS011;13509;50.760;6.080;2024-03-08T00:27:42;27.80;;;16.23;;
9080;SDS011;13509;50.760;6.080;2024-03-08T00:30:11;23.40;;;14.30;;
9080;SDS011;13509;50.760;6.080;2024-03-08T00:32:40;23.50;;;15.00;;
9080;SDS011;13509;50.760;6.080;2024-03-08T00:35:11;26.20;;;15.37;;
9080;SDS011;13509;50.760;6.080;2024-03-08T00:37:39;22.33;;;15.13;;
9080;SDS011;13509;50.760;6.080;2024-03-08T00:40:09;24.17;;;15.00;;
9080;SDS011;13509;50.760;6.080;2024-03-08T00:42:37;28.17;;;15.90;;
9080;SDS011;13509;50.760;6.080;2024-03-08T00:45:07;27.33;;;15.57;;
9080;SDS011;13509;50.760;6.080;2024-03-08T00:47:37;25.20;;;14.77;;
9080;SDS011;13509;50.760;6.080;2024-03-08T00:50:06;26.97;;;15.00;;
9080;SDS011;13509;50.760;6.080;2024-03-08T00:52:36;30.60;;;16.47;;
9080;SDS011;13509;50.760;6.080;2024-03-08T00:55:04;22.40;;;14.13;;
9080;SDS011;13509;50.760;6.080;2024-03-08T00:57:34;27.23;;;15.87;;
9080;SDS011;13509;50.760;6.080;2024-03-08T01:00:03;32.70;;;16.50;;
9080;SDS011;13509;50.760;6.080;2024-03-08T01:02:36;27.83;;;16.10;;
9080;SDS011;13509;50.760;6.080;2024-03-08T01:05:04;26.23;;;15.63;;
9080;SDS011;13509;50.760;6.080;2024-03-08T01:07:33;25.20;;;16.30;;
9080;SDS011;13509;50.760;6.080;2024-03-08T01:10:04;28.40;;;16.53;;
9080;SDS011;13509;50.760;6.080;2024-03-08T01:12:36;28.87;;;15.73;;
9080;SDS011;13509;50.760;6.080;2024-03-08T01:15:04;23.47;;;15.37;;
9080;SDS011;13509;50.760;6.080;2024-03-08T01:17:33;25.07;;;15.13;;
9080;SDS011;13509;50.760;6.080;2024-03-08T01:20:02;29.63;;;16.53;;
9080;SDS011;13509;50.760;6.080;2024-03-08T01:22:31;27.03;;;15.70;;
9080;SDS011;13509;50.760;6.080;2024-03-08T01:24:59;28.27;;;16.47;;
9080;SDS011;13509;50.760;6.080;2024-03-08T01:27:29;28.27;;;16.37;;
9080;SDS011;13509;50.760;6.080;2024-03-08T01:29:57;27.00;;;16.33;;
9080;SDS011;13509;50.760;6.080;2024-03-08T01:32:26;27.33;;;16.27;;
9080;SDS011;13509;50.760;6.080;2024-03-08T01:34:54;25.10;;;15.43;;
9080;SDS011;13509;50.760;6.080;2024-03-08T01:37:23;26.50;;;16.17;;
9080;SDS011;13509;50.760;6.080;2024-03-08T01:39:51;29.10;;;16.60;;
9080;SDS011;13509;50.760;6.080;2024-03-08T01:42:19;27.03;;;16.00;;
9080;SDS011;13509;50.760;6.080;2024-03-08T01:44:49;29.50;;;17.53;;
9080;SDS011;13509;50.760;6.080;2024-03-08T01:47:18;25.23;;;16.13;;
9080;SDS011;13509;50.760;6.080;2024-03-08T01:49:49;28.87;;;16.10;;
9080;SDS011;13509;50.760;6.080;2024-03-08T01:52:17;29.43;;;15.87;;
9080;SDS011;13509;50.760;6.080;2024-03-08T01:54:47;29.67;;;16.70;;
9080;SDS011;13509;50.760;6.080;2024-03-08T01:57:15;25.07;;;15.70;;
9080;SDS011;13509;50.760;6.080;2024-03-08T01:59:43;29.03;;;15.40;;
9080;SDS011;13509;50.760;6.080;2024-03-08T02:02:13;26.20;;;16.03;;
9080;SDS011;13509;50.760;6.080;2024-03-08T02:04:42;28.37;;;16.43;;
9080;SDS011;13509;50.760;6.080;2024-03-08T02:07:11;27.10;;;15.83;;
9080;SDS011;13509;50.760;6.080;2024-03-08T02:09:39;28.57;;;16.30;;
9080;SDS011;13509;50.760;6.080;2024-03-08T02:12:08;28.10;;;16.17;;
9080;SDS011;13509;50.760;6.080;2024-03-08T02:14:36;26.00;;;15.17;;
9080;SDS011;13509;50.760;6.080;2024-03-08T02:17:06;26.23;;;16.37;;
9080;SDS011;13509;50.760;6.080;2024-03-08T02:19:36;27.67;;;15.10;;
9080;SDS011;13509;50.760;6.080;2024-03-08T02:22:06;26.80;;;15.83;;
9080;SDS011;13509;50.760;6.080;2024-03-08T02:24:35;25.70;;;16.03;;
9080;SDS011;13509;50.760;6.080;2024-03-08T02:27:04;33.90;;;16.70;;
9080;SDS011;13509;50.760;6.080;2024-03-08T02:29:33;25.47;;;15.77;;
9080;SDS011;13509;50.760;6.080;2024-03-08T02:32:01;32.80;;;17.17;;
9080;SDS011;13509;50.760;6.080;2024-03-08T02:34:31;31.57;;;16.50;;
9080;SDS011;13509;50.760;6.080;2024-03-08T02:36:59;33.73;;;16.67;;
9080;SDS011;13509;50.760;6.080;2024-03-08T02:39:29;26.17;;;16.00;;
9080;SDS011;13509;50.760;6.080;2024-03-08T02:41:58;28.57;;;16.50;;
9080;SDS011;13509;50.760;6.080;2024-03-08T02:44:27;31.33;;;18.70;;
9080;SDS011;13509;50.760;6.080;2024-03-08T02:46:55;27.67;;;16.33;;
9080;SDS011;13509;50.760;6.080;2024-03-08T02:49:23;26.40;;;15.43;;
9080;SDS011;13509;50.760;6.080;2024-03-08T02:51:52;31.30;;;16.30;;
9080;SDS011;13509;50.760;6.080;2024-03-08T02:54:23;29.10;;;16.50;;
9080;SDS011;13509;50.760;6.080;2024-03-08T02:56:53;30.93;;;17.13;;
9080;SDS011;13509;50.760;6.080;2024-03-08T02:59:21;30.20;;;17.00;;
9080;SDS011;13509;50.760;6.080;2024-03-08T03:01:50;29.10;;;15.60;;
9080;SDS011;13509;50.760;6.080;2024-03-08T03:04:18;33.37;;;17.60;;
9080;SDS011;13509;50.760;6.080;2024-03-08T03:06:46;31.13;;;16.83;;
9080;SDS011;13509;50.760;6.080;2024-03-08T03:09:14;30.03;;;17.53;;
9080;SDS011;13509;50.760;6.080;2024-03-08T03:11:49;32.37;;;18.13;;
9080;SDS011;13509;50.760;6.080;2024-03-08T03:14:19;29.83;;;17.47;;
9080;SDS011;13509;50.760;6.080;2024-03-08T03:16:47;29.73;;;16.83;;
9080;SDS011;13509;50.760;6.080;2024-03-08T03:19:15;31.87;;;17.57;;
9080;SDS011;13509;50.760;6.080;2024-03-08T03:21:44;26.53;;;15.83;;
9080;SDS011;13509;50.760;6.080;2024-03-08T03:24:12;26.93;;;16.40;;
9080;SDS011;13509;50.760;6.080;2024-03-08T03:26:42;31.67;;;16.53;;
9080;SDS011;13509;50.760;6.080;2024-03-08T03:29:12;31.17;;;16.10;;
9080;SDS011;13509;50.760;6.080;2024-03-08T03:31:43;31.63;;;17.20;;
9080;SDS011;13509;50.760;6.080;2024-03-08T03:34:11;29.63;;;17.13;;
9080;SDS011;13509;50.760;6.080;2024-03-08T03:36:40;28.80;;;16.33;;
9080;SDS011;13509;50.760;6.080;2024-03-08T03:39:09;32.40;;;16.33;;
9080;SDS011;13509;50.760;6.080;2024-03-08T03:41:42;30.30;;;18.27;;
9080;SDS011;13509;50.760;6.080;2024-03-08T03:44:12;31.23;;;16.47;;
9080;SDS011;13509;50.760;6.080;2024-03-08T03:46:42;27.77;;;15.70;;
9080;SDS011;13509;50.760;6.080;2024-03-08T03:49:11;33.90;;;17.77;;
9080;SDS011;13509;50.760;6.080;2024-03-08T03:51:39;29.43;;;16.63;;
9080;SDS011;13509;50.760;6.080;2024-03-08T03:54:08;29.67;;;16.37;;
9080;SDS011;13509;50.760;6.080;2024-03-08T03:56:36;31.97;;;17.23;;
9080;SDS011;13509;50.760;6.080;2024-03-08T03:59:06;28.33;;;16.53;;
9080;SDS011;13509;50.760;6.080;2024-03-08T04:01:34;32.80;;;17.30;;
9080;SDS011;13509;50.760;6.080;2024-03-08T04:04:06;30.03;;;17.13;;
9080;SDS011;13509;50.760;6.080;2024-03-08T04:06:34;35.23;;;18.03;;
9080;SDS011;13509;50.760;6.080;2024-03-08T04:09:03;30.87;;;16.77;;
9080;SDS011;13509;50.760;6.080;2024-03-08T04:11:31;31.43;;;16.90;;
9080;SDS011;13509;50.760;6.080;2024-03-08T04:14:00;36.27;;;17.77;;
9080;SDS011;13509;50.760;6.080;2024-03-08T04:16:28;33.07;;;16.97;;
9080;SDS011;13509;50.760;6.080;2024-03-08T04:18:57;35.20;;;18.73;;
9080;SDS011;13509;50.760;6.080;2024-03-08T04:21:26;30.83;;;18.63;;
9080;SDS011;13509;50.760;6.080;2024-03-08T04:23:55;31.63;;;16.90;;
9080;SDS011;13509;50.760;6.080;2024-03-08T04:26:23;30.57;;;16.80;;
9080;SDS011;13509;50.760;6.080;2024-03-08T04:28:52;32.27;;;17.20;;
9080;SDS011;13509;50.760;6.080;2024-03-08T04:31:20;33.20;;;17.73;;
9080;SDS011;13509;50.760;6.080;2024-03-08T04:33:49;37.50;;;18.47;;
9080;SDS011;13509;50.760;6.080;2024-03-08T04:36:17;30.87;;;18.17;;
9080;SDS011;13509;50.760;6.080;2024-03-08T04:38:47;32.07;;;17.63;;
9080;SDS011;13509;50.760;6.080;2024-03-08T04:41:16;30.87;;;17.63;;
9080;SDS011;13509;50.760;6.080;2024-03-08T04:43:44;29.17;;;16.77;;
9080;SDS011;13509;50.760;6.080;2024-03-08T04:46:13;33.57;;;17.80;;
9080;SDS011;13509;50.760;6.080;2024-03-08T04:48:42;31.90;;;17.43;;
9080;SDS011;13509;50.760;6.080;2024-03-08T04:51:11;30.60;;;17.67;;
9080;SDS011;13509;50.760;6.080;2024-03-08T04:53:39;32.77;;;18.47;;
9080;SDS011;13509;50.760;6.080;2024-03-08T04:56:09;29.73;;;17.30;;
9080;SDS011;13509;50.760;6.080;2024-03-08T04:58:37;34.50;;;18.23;;
9080;SDS011;13509;50.760;6.080;2024-03-08T05:01:05;29.27;;;17.33;;
9080;SDS011;13509;50.760;6.080;2024-03-08T05:03:36;32.93;;;18.27;;
9080;SDS011;13509;50.760;6.080;2024-03-08T05:06:05;32.50;;;18.13;;
9080;SDS011;13509;50.760;6.080;2024-03-08T05:08:34;31.30;;;17.27;;
9080;SDS011;13509;50.760;6.080;2024-03-08T05:11:03;33.53;;;17.60;;
9080;SDS011;13509;50.760;6.080;2024-03-08T05:13:35;35.00;;;18.77;;
9080;SDS011;13509;50.760;6.080;2024-03-08T05:16:04;34.30;;;18.53;;
9080;SDS011;13509;50.760;6.080;2024-03-08T05:18:33;32.77;;;18.07;;
9080;SDS011;13509;50.760;6.080;2024-03-08T05:21:02;30.13;;;17.27;;
9080;SDS011;13509;50.760;6.080;2024-03-08T05:23:31;33.20;;;17.47;;
9080;SDS011;13509;50.760;6.080;2024-03-08T05:26:00;32.47;;;17.47;;
9080;SDS011;13509;50.760;6.080;2024-03-08T05:28:30;32.53;;;17.67;;
9080;SDS011;13509;50.760;6.080;2024-03-08T05:31:00;31.20;;;17.10;;
9080;SDS011;13509;50.760;6.080;2024-03-08T05:33:28;37.40;;;19.03;;
9080;SDS011;13509;50.760;6.080;2024-03-08T05:35:56;33.30;;;17.67;;
9080;SDS011;13509;50.760;6.080;2024-03-08T05:38:25;33.13;;;17.27;;
9080;SDS011;13509;50.760;6.080;2024-03-08T05:40:54;34.77;;;17.83;;
9080;SDS011;13509;50.760;6.080;2024-03-08T05:43:22;33.37;;;18.53;;
9080;SDS011;13509;50.760;6.080;2024-03-08T05:45:51;36.83;;;18.57;;
9080;SDS011;13509;50.760;6.080;2024-03-08T05:48:20;34.40;;;18.27;;
9080;SDS011;13509;50.760;6.080;2024-03-08T05:50:49;35.23;;;17.07;;
9080;SDS011;13509;50.760;6.080;2024-03-08T05:53:17;29.90;;;16.80;;
9080;SDS011;13509;50.760;6.080;2024-03-08T05:55:46;32.33;;;17.20;;
9080;SDS011;13509;50.760;6.080;2024-03-08T05:58:15;33.13;;;17.93;;
9080;SDS011;13509;50.760;6.080;2024-03-08T06:00:43;27.03;;;15.57;;
9080;SDS011;13509;50.760;6.080;2024-03-08T06:03:15;34.67;;;17.53;;
9080;SDS011;13509;50.760;6.080;2024-03-08T06:05:47;33.43;;;17.40;;
9080;SDS011;13509;50.760;6.080;2024-03-08T06:08:16;30.67;;;17.67;;
9080;SDS011;13509;50.760;6.080;2024-03-08T06:10:45;34.17;;;17.87;;
9080;SDS011;13509;50.760;6.080;2024-03-08T06:13:18;33.53;;;17.30;;
9080;SDS011;13509;50.760;6.080;2024-03-08T06:15:47;31.10;;;17.07;;
9080;SDS011;13509;50.760;6.080;2024-03-08T06:18:16;35.90;;;16.70;;
9080;SDS011;13509;50.760;6.080;2024-03-08T06:20:45;33.23;;;17.00;;
9080;SDS011;13509;50.760;6.080;2024-03-08T06:23:14;29.83;;;16.80;;
9080;SDS011;13509;50.760;6.080;2024-03-08T06:25:44;30.10;;;16.50;;
9080;SDS011;13509;50.760;6.080;2024-03-08T06:28:12;31.97;;;17.53;;
9080;SDS011;13509;50.760;6.080;2024-03-08T06:30:41;28.93;;;16.17;;
9080;SDS011;13509;50.760;6.080;2024-03-08T06:33:09;33.27;;;16.27;;
9080;SDS011;13509;50.760;6.080;2024-03-08T06:35:38;32.20;;;16.67;;
9080;SDS011;13509;50.760;6.080;2024-03-08T06:38:06;31.13;;;16.30;;
9080;SDS011;13509;50.760;6.080;2024-03-08T06:40:35;30.17;;;16.43;;
9080;SDS011;13509;50.760;6.080;2024-03-08T06:43:04;32.20;;;16.13;;
9080;SDS011;13509;50.760;6.080;2024-03-08T06:45:32;26.03;;;16.23;;
9080;SDS011;13509;50.760;6.080;2024-03-08T06:48:03;30.97;;;16.30;;
9080;SDS011;13509;50.760;6.080;2024-03-08T06:50:36;28.43;;;16.10;;
9080;SDS011;13509;50.760;6.080;2024-03-08T06:53:04;29.23;;;16.60;;
9080;SDS011;13509;50.760;6.080;2024-03-08T06:55:33;27.37;;;15.40;;
9080;SDS011;13509;50.760;6.080;2024-03-08T06:58:03;26.63;;;15.23;;
9080;SDS011;13509;50.760;6.080;2024-03-08T07:00:32;26.57;;;14.60;;
9080;SDS011;13509;50.760;6.080;2024-03-08T07:03:00;28.10;;;15.00;;
9080;SDS011;13509;50.760;6.080;2024-03-08T07:05:29;26.80;;;15.57;;
9080;SDS011;13509;50.760;6.080;2024-03-08T07:07:58;27.63;;;15.20;;
9080;SDS011;13509;50.760;6.080;2024-03-08T07:10:27;25.77;;;14.47;;
9080;SDS011;13509;50.760;6.080;2024-03-08T07:12:55;21.67;;;14.07;;
9080;SDS011;13509;50.760;6.080;2024-03-08T07:15:25;26.80;;;14.80;;
9080;SDS011;13509;50.760;6.080;2024-03-08T07:17:54;25.23;;;14.53;;
9080;SDS011;13509;50.760;6.080;2024-03-08T07:20:23;23.97;;;13.97;;
9080;SDS011;13509;50.760;6.080;2024-03-08T07:22:51;23.63;;;14.10;;
9080;SDS011;13509;50.760;6.080;2024-03-08T07:25:20;22.53;;;13.53;;
9080;SDS011;13509;50.760;6.080;2024-03-08T07:27:49;23.57;;;14.40;;
9080;SDS011;13509;50.760;6.080;2024-03-08T07:30:17;22.43;;;13.67;;
9080;SDS011;13509;50.760;6.080;2024-03-08T07:33:05;21.63;;;14.37;;
9080;SDS011;13509;50.760;6.080;2024-03-08T07:35:38;25.30;;;13.90;;
9080;SDS011;13509;50.760;6.080;2024-03-08T07:38:07;23.10;;;14.13;;
9080;SDS011;13509;50.760;6.080;2024-03-08T07:40:38;24.00;;;13.83;;
9080;SDS011;13509;50.760;6.080;2024-03-08T07:43:07;23.47;;;14.07;;
9080;SDS011;13509;50.760;6.080;2024-03-08T07:45:36;21.93;;;13.87;;
9080;SDS011;13509;50.760;6.080;2024-03-08T07:48:06;21.00;;;14.03;;
9080;SDS011;13509;50.760;6.080;2024-03-08T07:50:36;20.80;;;13.37;;
9080;SDS011;13509;50.760;6.080;2024-03-08T07:53:05;19.33;;;13.47;;
9080;SDS011;13509;50.760;6.080;2024-03-08T07:55:34;20.53;;;13.37;;
9080;SDS011;13509;50.760;6.080;2024-03-08T07:58:03;24.90;;;14.20;;
9080;SDS011;13509;50.760;6.080;2024-03-08T08:00:31;21.43;;;13.73;;
9080;SDS011;13509;50.760;6.080;2024-03-08T08:02:59;21.37;;;13.67;;
9080;SDS011;13509;50.760;6.080;2024-03-08T08:05:30;22.53;;;12.93;;
9080;SDS011;13509;50.760;6.080;2024-03-08T08:08:01;19.83;;;13.70;;
9080;SDS011;13509;50.760;6.080;2024-03-08T08:10:32;20.37;;;14.10;;
9080;SDS011;13509;50.760;6.080;2024-03-08T08:13:01;20.87;;;13.57;;
9080;SDS011;13509;50.760;6.080;2024-03-08T08:15:31;20.33;;;13.33;;
9080;SDS011;13509;50.760;6.080;2024-03-08T08:18:00;22.43;;;14.27;;
9080;SDS011;13509;50.760;6.080;2024-03-08T08:20:34;21.13;;;13.57;;
9080;SDS011;13509;50.760;6.080;2024-03-08T08:23:03;18.63;;;12.27;;
9080;SDS011;13509;50.760;6.080;2024-03-08T08:25:32;19.00;;;13.23;;
9080;SDS011;13509;50.760;6.080;2024-03-08T08:28:01;19.93;;;13.17;;
9080;SDS011;13509;50.760;6.080;2024-03-08T08:30:31;20.20;;;12.70;;
9080;SDS011;13509;50.760;6.080;2024-03-08T08:33:00;20.33;;;13.90;;
9080;SDS011;13509;50.760;6.080;2024-03-08T08:35:29;19.90;;;13.27;;
9080;SDS011;13509;50.760;6.080;2024-03-08T08:37:58;17.50;;;12.27;;
9080;SDS011;13509;50.760;6.080;2024-03-08T08:40:27;19.07;;;12.97;;
9080;SDS011;13509;50.760;6.080;2024-03-08T08:42:57;18.07;;;13.17;;
9080;SDS011;13509;50.760;6.080;2024-03-08T08:45:26;18.80;;;12.27;;
9080;SDS011;13509;50.760;6.080;2024-03-08T08:47:54;23.03;;;13.23;;
9080;SDS011;13509;50.760;6.080;2024-03-08T08:50:23;16.60;;;11.90;;
9080;SDS011;13509;50.760;6.080;2024-03-08T08:52:52;20.73;;;13.13;;
9080;SDS011;13509;50.760;6.080;2024-03-08T08:55:22;18.57;;;12.37;;
9080;SDS011;13509;50.760;6.080;2024-03-08T08:57:52;18.93;;;12.80;;
9080;SDS011;13509;50.760;6.080;2024-03-08T09:00:22;19.03;;;12.00;;
9080;SDS011;13509;50.760;6.080;2024-03-08T09:02:54;18.03;;;12.17;;
9080;SDS011;13509;50.760;6.080;2024-03-08T09:05:24;20.20;;;12.37;;
9080;SDS011;13509;50.760;6.080;2024-03-08T09:07:53;21.60;;;13.07;;
9080;SDS011;13509;50.760;6.080;2024-03-08T09:10:23;18.73;;;12.37;;
9080;SDS011;13509;50.760;6.080;2024-03-08T09:12:54;26.47;;;12.30;;
9080;SDS011;13509;50.760;6.080;2024-03-08T09:15:23;19.17;;;12.53;;
9080;SDS011;13509;50.760;6.080;2024-03-08T09:17:55;19.77;;;12.30;;
9080;SDS011;13509;50.760;6.080;2024-03-08T09:20:25;18.83;;;12.33;;
9080;SDS011;13509;50.760;6.080;2024-03-08T09:22:53;18.53;;;12.83;;
9080;SDS011;13509;50.760;6.080;2024-03-08T09:25:23;20.00;;;12.70;;
9080;SDS011;13509;50.760;6.080;2024-03-08T09:27:52;18.17;;;12.00;;
9080;SDS011;13509;50.760;6.080;2024-03-08T09:30:21;17.67;;;11.30;;
9080;SDS011;13509;50.760;6.080;2024-03-08T09:32:50;17.83;;;11.73;;
9080;SDS011;13509;50.760;6.080;2024-03-08T09:35:19;18.00;;;11.83;;
9080;SDS011;13509;50.760;6.080;2024-03-08T09:37:48;18.10;;;12.37;;
9080;SDS011;13509;50.760;6.080;2024-03-08T09:40:18;18.67;;;12.60;;
9080;SDS011;13509;50.760;6.080;2024-03-08T09:42:49;17.43;;;11.40;;
9080;SDS011;13509;50.760;6.080;2024-03-08T09:45:19;19.10;;;12.73;;
9080;SDS011;13509;50.760;6.080;2024-03-08T09:47:48;17.10;;;11.00;;
9080;SDS011;13509;50.760;6.080;2024-03-08T09:50:17;20.53;;;12.13;;
9080;SDS011;13509;50.760;6.080;2024-03-08T09:52:46;16.27;;;11.13;;
9080;SDS011;13509;50.760;6.080;2024-03-08T09:55:15;18.23;;;12.17;;
9080;SDS011;13509;50.760;6.080;2024-03-08T09:57:50;15.70;;;11.23;;
9080;SDS011;13509;50.760;6.080;2024-03-08T10:00:37;17.20;;;12.33;;
9080;SDS011;13509;50.760;6.080;2024-03-08T10:03:05;15.17;;;11.17;;
9080;SDS011;13509;50.760;6.080;2024-03-08T10:05:36;16.80;;;12.00;;
9080;SDS011;13509;50.760;6.080;2024-03-08T10:08:05;15.27;;;10.70;;
9080;SDS011;13509;50.760;6.080;2024-03-08T10:10:34;17.30;;;11.20;;
9080;SDS011;13509;50.760;6.080;2024-03-08T10:13:06;16.13;;;11.67;;
9080;SDS011;13509;50.760;6.080;2024-03-08T10:15:34;17.87;;;11.53;;
9080;SDS011;13509;50.760;6.080;2024-03-08T10:18:05;16.40;;;11.27;;
9080;SDS011;13509;50.760;6.080;2024-03-08T10:20:33;15.80;;;10.50;;
9080;SDS011;13509;50.760;6.080;2024-03-08T10:23:02;15.80;;;10.07;;
9080;SDS011;13509;50.760;6.080;2024-03-08T10:25:37;17.13;;;10.37;;
9080;SDS011;13509;50.760;6.080;2024-03-08T10:28:07;15.63;;;9.60;;
9080;SDS011;13509;50.760;6.080;2024-03-08T10:30:36;14.07;;;8.80;;
9080;SDS011;13509;50.760;6.080;2024-03-08T10:33:04;14.90;;;8.97;;
9080;SDS011;13509;50.760;6.080;2024-03-08T10:35:33;11.23;;;7.77;;
9080;SDS011;13509;50.760;6.080;2024-03-08T10:38:01;13.70;;;8.13;;
9080;SDS011;13509;50.760;6.080;2024-03-08T10:40:33;12.30;;;7.67;;
9080;SDS011;13509;50.760;6.080;2024-03-08T10:43:04;13.00;;;7.90;;
9080;SDS011;13509;50.760;6.080;2024-03-08T10:45:35;14.60;;;7.83;;
9080;SDS011;13509;50.760;6.080;2024-03-08T10:48:08;11.37;;;7.67;;
9080;SDS011;13509;50.760;6.080;2024-03-08T10:50:38;13.97;;;8.40;;
9080;SDS011;13509;50.760;6.080;2024-03-08T10:53:06;14.80;;;8.23;;
9080;SDS011;13509;50.760;6.080;2024-03-08T10:55:36;16.00;;;8.73;;
9080;SDS011;13509;50.760;6.080;2024-03-08T10:58:08;12.27;;;8.40;;
9080;SDS011;13509;50.760;6.080;2024-03-08T11:00:38;13.10;;;8.53;;
9080;SDS011;13509;50.760;6.080;2024-03-08T11:03:07;14.93;;;7.83;;
9080;SDS011;13509;50.760;6.080;2024-03-08T11:05:56;9.87;;;7.10;;
9080;SDS011;13509;50.760;6.080;2024-03-08T11:08:27;13.50;;;7.97;;
9080;SDS011;13509;50.760;6.080;2024-03-08T11:11:00;12.90;;;7.53;;
9080;SDS011;13509;50.760;6.080;2024-03-08T11:13:34;11.07;;;7.50;;
9080;SDS011;13509;50.760;6.080;2024-03-08T11:16:08;12.53;;;7.27;;
9080;SDS011;13509;50.760;6.080;2024-03-08T11:18:38;12.00;;;8.17;;
9080;SDS011;13509;50.760;6.080;2024-03-08T11:21:08;11.90;;;7.10;;
9080;SDS011;13509;50.760;6.080;2024-03-08T11:23:39;11.03;;;7.43;;
9080;SDS011;13509;50.760;6.080;2024-03-08T11:26:17;12.97;;;7.87;;
9080;SDS011;13509;50.760;6.080;2024-03-08T11:28:45;9.90;;;6.80;;
9080;SDS011;13509;50.760;6.080;2024-03-08T11:31:24;11.27;;;7.67;;
9080;SDS011;13509;50.760;6.080;2024-03-08T11:33:55;12.80;;;7.63;;
9080;SDS011;13509;50.760;6.080;2024-03-08T11:36:24;13.60;;;7.87;;
9080;SDS011;13509;50.760;6.080;2024-03-08T11:38:52;11.93;;;7.70;;
9080;SDS011;13509;50.760;6.080;2024-03-08T11:41:23;13.70;;;7.43;;
9080;SDS011;13509;50.760;6.080;2024-03-08T11:44:01;13.27;;;7.77;;
9080;SDS011;13509;50.760;6.080;2024-03-08T11:46:33;12.30;;;8.20;;
9080;SDS011;13509;50.760;6.080;2024-03-08T11:49:01;12.17;;;7.63;;
9080;SDS011;13509;50.760;6.080;2024-03-08T11:51:32;10.47;;;7.23;;
9080;SDS011;13509;50.760;6.080;2024-03-08T11:54:00;11.60;;;7.40;;
9080;SDS011;13509;50.760;6.080;2024-03-08T11:56:29;10.03;;;7.30;;
9080;SDS011;13509;50.760;6.080;2024-03-08T11:58:58;11.77;;;7.40;;
9080;SDS011;13509;50.760;6.080;2024-03-08T12:01:28;10.97;;;7.60;;
9080;SDS011;13509;50.760;6.080;2024-03-08T12:03:59;10.03;;;7.60;;
9080;SDS011;13509;50.760;6.080;2024-03-08T12:06:35;11.03;;;7.20;;
9080;SDS011;13509;50.760;6.080;2024-03-08T12:09:07;12.60;;;7.97;;
9080;SDS011;13509;50.760;6.080;2024-03-08T12:11:36;12.33;;;7.87;;
9080;SDS011;13509;50.760;6.080;2024-03-08T12:14:06;12.67;;;7.53;;
9080;SDS011;13509;50.760;6.080;2024-03-08T12:16:36;11.87;;;7.93;;
9080;SDS011;13509;50.760;6.080;2024-03-08T12:19:05;11.63;;;7.63;;
9080;SDS011;13509;50.760;6.080;2024-03-08T12:21:35;17.90;;;7.90;;
9080;SDS011;13509;50.760;6.080;2024-03-08T12:24:04;11.03;;;7.73;;
9080;SDS011;13509;50.760;6.080;2024-03-08T12:26:36;11.50;;;7.90;;
9080;SDS011;13509;50.760;6.080;2024-03-08T12:29:16;11.27;;;7.77;;
9080;SDS011;13509;50.760;6.080;2024-03-08T12:31:46;10.50;;;7.57;;
9080;SDS011;13509;50.760;6.080;2024-03-08T12:34:16;15.50;;;7.33;;
9080;SDS011;13509;50.760;6.080;2024-03-08T12:36:45;10.63;;;7.20;;
9080;SDS011;13509;50.760;6.080;2024-03-08T12:39:17;12.17;;;8.07;;
9080;SDS011;13509;50.760;6.080;2024-03-08T12:41:49;10.23;;;6.80;;
9080;SDS011;13509;50.760;6.080;2024-03-08T12:44:18;11.47;;;7.07;;
9080;SDS011;13509;50.760;6.080;2024-03-08T12:46:48;14.17;;;7.50;;
9080;SDS011;13509;50.760;6.080;2024-03-08T12:49:20;9.93;;;7.03;;
9080;SDS011;13509;50.760;6.080;2024-03-08T12:51:49;11.73;;;7.47;;
9080;SDS011;13509;50.760;6.080;2024-03-08T12:54:19;12.43;;;7.30;;
9080;SDS011;13509;50.760;6.080;2024-03-08T12:56:50;14.17;;;8.13;;
9080;SDS011;13509;50.760;6.080;2024-03-08T12:59:20;12.10;;;7.53;;
9080;SDS011;13509;50.760;6.080;2024-03-08T13:01:50;11.90;;;7.43;;
9080;SDS011;13509;50.760;6.080;2024-03-08T13:04:21;8.73;;;6.60;;
9080;SDS011;13509;50.760;6.080;2024-03-08T13:06:52;11.40;;;7.27;;
9080;SDS011;13509;50.760;6.080;2024-03-08T13:09:21;11.77;;;7.27;;
9080;SDS011;13509;50.760;6.080;2024-03-08T13:11:53;11.77;;;7.00;;
9080;SDS011;13509;50.760;6.080;2024-03-08T13:14:25;11.17;;;7.20;;
9080;SDS011;13509;50.760;6.080;2024-03-08T13:16:53;10.93;;;7.10;;
9080;SDS011;13509;50.760;6.080;2024-03-08T13:19:23;10.27;;;7.57;;
9080;SDS011;13509;50.760;6.080;2024-03-08T13:21:54;14.77;;;7.80;;
9080;SDS011;13509;50.760;6.080;2024-03-08T13:24:22;12.63;;;7.73;;
9080;SDS011;13509;50.760;6.080;2024-03-08T13:26:51;11.77;;;7.73;;
9080;SDS011;13509;50.760;6.080;2024-03-08T13:29:19;11.70;;;7.47;;
9080;SDS011;13509;50.760;6.080;2024-03-08T13:31:48;10.83;;;7.63;;
9080;SDS011;13509;50.760;6.080;2024-03-08T13:34:18;10.67;;;7.00;;
9080;SDS011;13509;50.760;6.080;2024-03-08T13:36:55;12.53;;;7.30;;
9080;SDS011;13509;50.760;6.080;2024-03-08T13:39:27;12.23;;;6.50;;
9080;SDS011;13509;50.760;6.080;2024-03-08T13:41:58;12.67;;;6.87;;
9080;SDS011;13509;50.760;6.080;2024-03-08T13:44:26;10.17;;;6.80;;
9080;SDS011;13509;50.760;6.080;2024-03-08T13:46:55;12.30;;;7.03;;
9080;SDS011;13509;50.760;6.080;2024-03-08T13:49:24;9.03;;;6.60;;
9080;SDS011;13509;50.760;6.080;2024-03-08T13:51:53;12.60;;;6.93;;
9080;SDS011;13509;50.760;6.080;2024-03-08T13:54:24;9.80;;;7.20;;
9080;SDS011;13509;50.760;6.080;2024-03-08T13:56:57;12.70;;;7.93;;
9080;SDS011;13509;50.760;6.080;2024-03-08T13:59:25;11.40;;;7.10;;
9080;SDS011;13509;50.760;6.080;2024-03-08T14:01:55;10.40;;;7.30;;
9080;SDS011;13509;50.760;6.080;2024-03-08T14:04:26;11.77;;;7.13;;
9080;SDS011;13509;50.760;6.080;2024-03-08T14:06:54;12.93;;;6.80;;
9080;SDS011;13509;50.760;6.080;2024-03-08T14:09:29;9.77;;;7.07;;
9080;SDS011;13509;50.760;6.080;2024-03-08T14:11:58;10.63;;;7.47;;
9080;SDS011;13509;50.760;6.080;2024-03-08T14:14:26;9.50;;;7.33;;
9080;SDS011;13509;50.760;6.080;2024-03-08T14:16:54;11.17;;;7.30;;
9080;SDS011;13509;50.760;6.080;2024-03-08T14:19:25;11.40;;;7.87;;
9080;SDS011;13509;50.760;6.080;2024-03-08T14:21:53;9.17;;;6.93;;
9080;SDS011;13509;50.760;6.080;2024-03-08T14:24:22;12.10;;;7.77;;
9080;SDS011;13509;50.760;6.080;2024-03-08T14:26:51;15.00;;;7.67;;
9080;SDS011;13509;50.760;6.080;2024-03-08T14:29:20;12.40;;;7.83;;
9080;SDS011;13509;50.760;6.080;2024-03-08T14:31:48;10.83;;;7.83;;
9080;SDS011;13509;50.760;6.080;2024-03-08T14:34:17;12.57;;;7.80;;
9080;SDS011;13509;50.760;6.080;2024-03-08T14:36:46;11.70;;;7.70;;
9080;SDS011;13509;50.760;6.080;2024-03-08T14:39:15;12.13;;;8.07;;
9080;SDS011;13509;50.760;6.080;2024-03-08T14:41:48;13.17;;;7.87;;
9080;SDS011;13509;50.760;6.080;2024-03-08T14:44:22;11.47;;;7.03;;
9080;SDS011;13509;50.760;6.080;2024-03-08T14:46:52;12.07;;;7.57;;
9080;SDS011;13509;50.760;6.080;2024-03-08T14:49:21;11.70;;;7.70;;
9080;SDS011;13509;50.760;6.080;2024-03-08T14:51:49;10.33;;;7.50;;